createdAt,value
2023-04-02T00:04:29.188Z,9.49
2023-04-02T00:10:49.184Z,9.51
2023-04-02T00:17:12.247Z,9.51
2023-04-02T00:23:32.164Z,9.46
2023-04-02T00:29:55.159Z,9.42
2023-04-02T00:36:15.220Z,9.38
2023-04-02T00:42:38.252Z,9.35
2023-04-02T00:48:58.168Z,9.35
2023-04-02T00:55:21.282Z,9.32
2023-04-02T01:01:41.169Z,9.31
2023-04-02T01:08:04.243Z,9.33
2023-04-02T01:14:24.214Z,9.34
2023-04-02T01:20:47.188Z,9.33
2023-04-02T01:27:07.157Z,9.37
2023-04-02T01:33:30.202Z,9.41
2023-04-02T01:39:50.152Z,9.42
2023-04-02T01:46:13.216Z,9.42
2023-04-02T01:52:33.197Z,9.44
2023-04-02T01:58:56.148Z,9.45
2023-04-02T02:05:16.153Z,9.49
2023-04-02T02:11:39.192Z,9.52
2023-04-02T02:17:59.166Z,9.55
2023-04-02T02:24:22.335Z,9.56
2023-04-02T02:30:42.214Z,9.58
2023-04-02T02:37:05.161Z,9.59
2023-04-02T02:43:25.168Z,9.57
2023-04-02T02:49:48.223Z,9.54
2023-04-02T02:56:08.186Z,9.42
2023-04-02T03:02:31.239Z,9.3
2023-04-02T03:08:51.197Z,9.27
2023-04-02T03:15:14.173Z,9.27
2023-04-02T03:21:34.173Z,9.25
2023-04-02T03:27:57.204Z,9.23
2023-04-02T03:43:29.139Z,9.11
2023-04-02T03:49:49.120Z,9.07
2023-04-02T03:56:12.191Z,9.02
2023-04-02T04:02:32.251Z,8.97
2023-04-02T04:08:55.135Z,8.95
2023-04-02T04:15:15.251Z,8.92
2023-04-02T04:21:38.217Z,8.86
2023-04-02T04:27:58.147Z,8.78
2023-04-02T04:34:21.178Z,8.66
2023-04-02T04:40:41.236Z,8.56
2023-04-02T04:47:04.183Z,8.49
2023-04-02T04:53:24.165Z,8.44
2023-04-02T04:59:47.175Z,8.41
2023-04-02T05:06:07.203Z,8.38
2023-04-02T05:12:30.172Z,8.37
2023-04-02T05:18:50.238Z,8.36
2023-04-02T05:25:13.153Z,8.36
2023-04-02T05:31:33.267Z,8.34
2023-04-02T05:37:56.255Z,8.3
2023-04-02T05:44:16.165Z,8.31
2023-04-02T05:50:39.167Z,8.31
2023-04-02T05:56:59.269Z,8.3
2023-04-02T06:03:22.197Z,8.28
2023-04-02T06:09:42.217Z,8.22
2023-04-02T06:16:05.259Z,8.18
2023-04-02T06:22:25.244Z,8.2
2023-04-02T06:28:48.187Z,8.21
2023-04-02T06:35:08.204Z,8.18
2023-04-02T06:41:31.207Z,8.17
2023-04-02T06:47:51.212Z,8.18
2023-04-02T06:54:14.233Z,8.21
2023-04-02T07:00:34.266Z,8.22
2023-04-02T07:06:57.165Z,8.19
2023-04-02T07:13:17.304Z,8.25
2023-04-02T07:19:40.170Z,8.29
2023-04-02T07:26:00.182Z,8.34
2023-04-02T07:32:23.210Z,8.34
2023-04-02T07:38:43.156Z,8.44
2023-04-02T07:45:06.266Z,8.51
2023-04-02T07:51:26.236Z,8.65
2023-04-02T07:57:49.254Z,8.7
2023-04-02T08:04:09.312Z,8.68
2023-04-02T08:10:32.224Z,8.77
2023-04-02T08:16:52.206Z,8.93
2023-04-02T08:23:15.208Z,8.93
2023-04-02T08:29:35.230Z,8.95
2023-04-02T08:35:58.243Z,8.95
2023-04-02T08:42:18.175Z,8.95
2023-04-02T08:58:10.121Z,9.06
2023-04-02T09:04:30.235Z,9.06
2023-04-02T09:10:53.149Z,9.05
2023-04-02T09:17:13.196Z,9.08
2023-04-02T09:23:36.229Z,9.16
2023-04-02T09:29:56.196Z,9.1
2023-04-02T09:36:19.231Z,9.08
2023-04-02T09:42:39.414Z,9.06
2023-04-02T09:49:02.204Z,9.07
2023-04-02T09:55:22.250Z,9.12
2023-04-02T10:01:45.224Z,9.01
2023-04-02T10:08:05.183Z,8.88
2023-04-02T10:14:28.235Z,8.8
2023-04-02T10:20:51.140Z,8.81
2023-04-02T10:27:11.205Z,8.77
2023-04-02T10:33:31.222Z,8.74
2023-04-02T10:39:54.210Z,8.77
2023-04-02T10:46:14.254Z,8.81
2023-04-02T10:52:37.267Z,8.84
2023-04-02T10:58:57.502Z,8.85
2023-04-02T11:05:20.212Z,8.96
2023-04-02T11:11:40.208Z,9.16
2023-04-02T11:18:03.223Z,9.3
2023-04-02T11:24:23.206Z,9.43
2023-04-02T11:30:46.192Z,9.59
2023-04-02T11:37:06.176Z,9.66
2023-04-02T11:43:29.169Z,9.63
2023-04-02T11:49:49.200Z,9.58
2023-04-02T11:56:12.230Z,9.61
2023-04-02T12:02:32.218Z,9.57
2023-04-02T12:08:57.811Z,9.49
2023-04-02T12:15:15.160Z,9.45
2023-04-02T12:21:38.163Z,9.44
2023-04-02T12:27:58.222Z,9.53
2023-04-02T12:34:21.162Z,9.67
2023-04-02T12:40:41.214Z,9.79
2023-04-02T12:47:04.180Z,9.77
2023-04-02T12:53:24.190Z,9.93
2023-04-02T12:59:47.254Z,10.15
2023-04-02T13:06:07.186Z,10.38
2023-04-02T13:12:30.221Z,10.43
2023-04-02T13:18:50.168Z,10.5
2023-04-02T13:25:13.202Z,10.45
2023-04-02T13:31:33.242Z,10.47
2023-04-02T13:37:56.241Z,10.39
2023-04-02T13:44:16.213Z,10.29
2023-04-02T13:50:39.337Z,10.05
2023-04-02T13:56:59.212Z,9.72
2023-04-02T14:03:22.262Z,9.58
2023-04-02T14:09:42.177Z,9.55
2023-04-02T14:26:46.137Z,9.35
2023-04-02T14:33:06.429Z,9.17
2023-04-02T14:39:29.196Z,8.94
2023-04-02T14:45:49.222Z,8.92
2023-04-02T14:52:12.192Z,9.06
2023-04-02T14:58:32.217Z,9.11
2023-04-02T15:04:55.212Z,9.04
2023-04-02T15:11:15.188Z,8.92
2023-04-02T15:17:38.228Z,8.9
2023-04-02T15:23:58.488Z,8.9
2023-04-02T15:30:21.187Z,8.85
2023-04-02T15:36:41.197Z,8.82
2023-04-02T15:43:04.274Z,8.73
2023-04-02T15:49:24.181Z,8.68
2023-04-02T15:55:47.165Z,8.66
2023-04-02T16:02:07.277Z,8.66
2023-04-02T16:08:30.182Z,8.62
2023-04-02T16:14:50.203Z,8.58
2023-04-02T16:21:13.200Z,8.49
2023-04-02T16:27:33.163Z,8.36
2023-04-02T16:33:56.219Z,8.33
2023-04-02T16:40:16.187Z,8.26
2023-04-02T16:46:40.494Z,8.19
2023-04-02T16:52:59.235Z,8.14
2023-04-02T16:59:22.236Z,8.01
2023-04-02T17:05:42.228Z,7.88
2023-04-02T17:12:05.192Z,7.8
2023-04-02T17:18:25.218Z,7.77
2023-04-02T17:24:48.228Z,7.68
2023-04-02T17:31:08.253Z,7.55
2023-04-02T17:37:31.212Z,7.37
2023-04-02T17:43:51.179Z,7.28
2023-04-02T17:50:14.197Z,7.25
2023-04-02T17:56:34.611Z,7.31
2023-04-02T18:02:57.221Z,7.28
2023-04-02T18:09:17.206Z,7.21
2023-04-02T18:15:40.207Z,7.24
2023-04-02T18:22:00.190Z,7.17
2023-04-02T18:28:23.227Z,7.1
2023-04-02T18:34:43.233Z,7.08
2023-04-02T18:41:06.204Z,7.11
2023-04-02T18:47:26.260Z,7.15
2023-04-02T18:53:49.317Z,7.1
2023-04-02T19:00:09.458Z,7.03
2023-04-02T19:06:32.150Z,6.98
2023-04-02T19:12:52.472Z,6.94
2023-04-02T19:19:15.176Z,6.9
2023-04-02T19:42:56.162Z,6.81
2023-04-02T19:49:16.147Z,6.7
2023-04-02T19:55:39.294Z,6.61
2023-04-02T20:02:02.873Z,6.54
2023-04-02T20:08:26.198Z,6.46
2023-04-02T20:14:46.217Z,6.42
2023-04-02T20:21:09.224Z,6.35
2023-04-02T20:27:29.195Z,6.25
2023-04-02T20:33:52.290Z,6.09
2023-04-02T20:40:12.177Z,5.98
2023-04-02T20:46:35.183Z,5.89
2023-04-02T20:52:55.154Z,5.84
2023-04-02T20:59:18.205Z,5.74
2023-04-02T21:05:38.211Z,5.71
2023-04-02T21:12:01.171Z,5.71
2023-04-02T21:18:21.280Z,5.69
2023-04-02T21:24:44.189Z,5.58
2023-04-02T21:31:04.297Z,5.45
2023-04-02T21:37:27.233Z,5.36
2023-04-02T21:43:47.170Z,5.29
2023-04-02T21:50:10.244Z,5.14
2023-04-02T21:56:30.221Z,5.01
2023-04-02T22:20:47.179Z,4.67
2023-04-02T22:27:07.175Z,4.65
2023-04-02T22:33:30.142Z,4.57
2023-04-02T22:39:50.200Z,4.52
2023-04-02T22:46:13.249Z,4.47
2023-04-02T22:52:33.173Z,4.47
2023-04-02T22:58:56.179Z,4.55
2023-04-02T23:05:16.257Z,4.67
2023-04-02T23:11:39.173Z,4.69
2023-04-02T23:17:59.274Z,4.67
2023-04-02T23:24:22.166Z,4.71
2023-04-02T23:30:42.212Z,4.8
2023-04-02T23:37:05.196Z,4.8
2023-04-02T23:43:25.221Z,4.74
2023-04-02T23:49:48.172Z,4.76
2023-04-02T23:56:08.216Z,4.75
